sensor_id;sensor_type;location;lat;lon;timestamp;pressure;altitude;pressure_sealevel;temperature;humidity
46007;BME280;31738;50.188;8.524;2023-01-29T00:00:01;100291.47;;;1.46;72.60
46007;BME280;31738;50.188;8.524;2023-01-29T00:02:27;100299.38;;;1.46;72.42
46007;BME280;31738;50.188;8.524;2023-01-29T00:04:54;100305.84;;;1.44;72.44
46007;BME280;31738;50.188;8.524;2023-01-29T00:07:19;100305.03;;;1.43;72.78
46007;BME280;31738;50.188;8.524;2023-01-29T00:09:51;100313.31;;;1.40;72.20
46007;BME280;31738;50.188;8.524;2023-01-29T00:12:19;100312.66;;;1.38;72.57
46007;BME280;31738;50.188;8.524;2023-01-29T00:15:15;100307.88;;;1.34;71.80
46007;BME280;31738;50.188;8.524;2023-01-29T00:17:41;100310.88;;;1.31;72.10
46007;BME280;31738;50.188;8.524;2023-01-29T00:20:06;100315.50;;;1.29;72.46
46007;BME280;31738;50.188;8.524;2023-01-29T00:22:32;100315.69;;;1.27;72.26
46007;BME280;31738;50.188;8.524;2023-01-29T00:24:58;100320.00;;;1.28;72.10
46007;BME280;31738;50.188;8.524;2023-01-29T00:27:23;100328.56;;;1.30;72.24
46007;BME280;31738;50.188;8.524;2023-01-29T00:29:49;100323.44;;;1.29;72.19
46007;BME280;31738;50.188;8.524;2023-01-29T00:32:36;100319.34;;;1.26;72.13
46007;BME280;31738;50.188;8.524;2023-01-29T00:35:07;100312.69;;;1.30;72.64
46007;BME280;31738;50.188;8.524;2023-01-29T00:38:02;100313.69;;;1.29;71.87
46007;BME280;31738;50.188;8.524;2023-01-29T00:40:30;100311.25;;;1.28;72.46
46007;BME280;31738;50.188;8.524;2023-01-29T00:43:18;100310.22;;;1.29;72.57
46007;BME280;31738;50.188;8.524;2023-01-29T00:50:09;100301.19;;;1.23;73.16
46007;BME280;31738;50.188;8.524;2023-01-29T00:52:38;100300.84;;;1.26;72.87
46007;BME280;31738;50.188;8.524;2023-01-29T00:55:11;100298.84;;;1.28;72.62
46007;BME280;31738;50.188;8.524;2023-01-29T00:57:39;100298.84;;;1.28;72.48
46007;BME280;31738;50.188;8.524;2023-01-29T01:00:09;100301.03;;;1.25;72.95
46007;BME280;31738;50.188;8.524;2023-01-29T01:02:38;100300.53;;;1.21;72.69
46007;BME280;31738;50.188;8.524;2023-01-29T01:09:22;100288.19;;;1.14;72.92
46007;BME280;31738;50.188;8.524;2023-01-29T01:12:06;100282.13;;;1.13;72.80
46007;BME280;31738;50.188;8.524;2023-01-29T01:15:03;100284.94;;;1.12;72.88
46007;BME280;31738;50.188;8.524;2023-01-29T01:17:29;100279.66;;;1.12;73.01
46007;BME280;31738;50.188;8.524;2023-01-29T01:19:57;100274.81;;;1.15;72.96
46007;BME280;31738;50.188;8.524;2023-01-29T01:22:30;100271.19;;;1.16;73.44
46007;BME280;31738;50.188;8.524;2023-01-29T01:24:59;100272.47;;;1.20;73.31
46007;BME280;31738;50.188;8.524;2023-01-29T01:27:24;100271.47;;;1.21;73.29
46007;BME280;31738;50.188;8.524;2023-01-29T01:29:50;100264.38;;;1.22;72.97
46007;BME280;31738;50.188;8.524;2023-01-29T01:32:16;100253.81;;;1.22;72.96
46007;BME280;31738;50.188;8.524;2023-01-29T01:37:45;100239.13;;;1.19;73.21
46007;BME280;31738;50.188;8.524;2023-01-29T01:40:15;100244.06;;;1.22;73.26
46007;BME280;31738;50.188;8.524;2023-01-29T01:42:48;100235.13;;;1.23;73.23
46007;BME280;31738;50.188;8.524;2023-01-29T01:49:17;100224.34;;;1.10;73.35
46007;BME280;31738;50.188;8.524;2023-01-29T01:54:54;100227.31;;;1.07;73.82
46007;BME280;31738;50.188;8.524;2023-01-29T01:57:24;100222.69;;;1.09;73.70
46007;BME280;31738;50.188;8.524;2023-01-29T01:59:55;100219.69;;;1.12;73.63
46007;BME280;31738;50.188;8.524;2023-01-29T02:02:23;100210.97;;;1.12;74.08
46007;BME280;31738;50.188;8.524;2023-01-29T02:08:12;100220.00;;;0.95;74.43
46007;BME280;31738;50.188;8.524;2023-01-29T02:11:00;100220.44;;;0.98;74.50
46007;BME280;31738;50.188;8.524;2023-01-29T02:13:26;100219.13;;;1.02;74.16
46007;BME280;31738;50.188;8.524;2023-01-29T02:15:57;100220.75;;;1.03;74.66
46007;BME280;31738;50.188;8.524;2023-01-29T02:18:25;100219.72;;;1.04;74.51
46007;BME280;31738;50.188;8.524;2023-01-29T02:21:04;100218.59;;;1.07;74.33
46007;BME280;31738;50.188;8.524;2023-01-29T02:29:20;100230.13;;;1.06;74.39
46007;BME280;31738;50.188;8.524;2023-01-29T02:32:26;100238.06;;;1.06;74.31
46007;BME280;31738;50.188;8.524;2023-01-29T02:41:48;100249.50;;;0.98;74.46
46007;BME280;31738;50.188;8.524;2023-01-29T02:44:36;100255.44;;;1.00;74.54
46007;BME280;31738;50.188;8.524;2023-01-29T02:48:01;100248.88;;;0.96;74.89
46007;BME280;31738;50.188;8.524;2023-01-29T02:56:18;100236.28;;;0.98;74.87
46007;BME280;31738;50.188;8.524;2023-01-29T02:58:54;100239.94;;;0.97;74.81
46007;BME280;31738;50.188;8.524;2023-01-29T03:01:30;100234.66;;;0.97;74.97
46007;BME280;31738;50.188;8.524;2023-01-29T03:04:02;100236.63;;;0.95;74.22
46007;BME280;31738;50.188;8.524;2023-01-29T03:06:36;100232.06;;;0.89;74.05
46007;BME280;31738;50.188;8.524;2023-01-29T03:09:16;100229.13;;;0.84;74.42
46007;BME280;31738;50.188;8.524;2023-01-29T03:11:53;100233.09;;;0.80;74.39
46007;BME280;31738;50.188;8.524;2023-01-29T03:14:37;100234.81;;;0.73;74.30
46007;BME280;31738;50.188;8.524;2023-01-29T03:17:32;100245.22;;;0.67;74.20
46007;BME280;31738;50.188;8.524;2023-01-29T03:20:02;100240.97;;;0.66;73.97
46007;BME280;31738;50.188;8.524;2023-01-29T03:22:32;100243.78;;;0.64;73.78
46007;BME280;31738;50.188;8.524;2023-01-29T03:25:00;100237.84;;;0.62;74.33
46007;BME280;31738;50.188;8.524;2023-01-29T03:27:55;100250.88;;;0.56;74.40
46007;BME280;31738;50.188;8.524;2023-01-29T03:30:52;100259.66;;;0.48;74.62
46007;BME280;31738;50.188;8.524;2023-01-29T03:33:46;100261.81;;;0.45;74.02
46007;BME280;31738;50.188;8.524;2023-01-29T03:36:20;100255.06;;;0.42;74.32
46007;BME280;31738;50.188;8.524;2023-01-29T03:38:47;100244.03;;;0.39;74.18
46007;BME280;31738;50.188;8.524;2023-01-29T03:41:32;100243.22;;;0.38;73.70
46007;BME280;31738;50.188;8.524;2023-01-29T03:44:11;100233.66;;;0.37;74.11
46007;BME280;31738;50.188;8.524;2023-01-29T03:46:54;100231.34;;;0.34;74.35
46007;BME280;31738;50.188;8.524;2023-01-29T03:49:35;100234.16;;;0.33;74.03
46007;BME280;31738;50.188;8.524;2023-01-29T03:57:43;100249.38;;;0.23;74.13
46007;BME280;31738;50.188;8.524;2023-01-29T04:00:15;100246.56;;;0.24;74.29
46007;BME280;31738;50.188;8.524;2023-01-29T04:03:12;100247.25;;;0.18;74.37
46007;BME280;31738;50.188;8.524;2023-01-29T04:05:50;100256.13;;;0.17;74.72
46007;BME280;31738;50.188;8.524;2023-01-29T04:08:28;100248.56;;;0.14;75.04
46007;BME280;31738;50.188;8.524;2023-01-29T04:10:59;100236.56;;;0.12;74.37
46007;BME280;31738;50.188;8.524;2023-01-29T04:13:28;100225.16;;;0.11;74.81
46007;BME280;31738;50.188;8.524;2023-01-29T04:15:57;100220.91;;;0.10;75.16
46007;BME280;31738;50.188;8.524;2023-01-29T04:18:47;100211.69;;;0.06;74.59
46007;BME280;31738;50.188;8.524;2023-01-29T04:21:13;100213.66;;;0.04;74.66
46007;BME280;31738;50.188;8.524;2023-01-29T04:23:39;100212.19;;;0.02;74.76
46007;BME280;31738;50.188;8.524;2023-01-29T04:26:23;100208.72;;;0.01;74.92
46007;BME280;31738;50.188;8.524;2023-01-29T04:31:31;100218.63;;;-0.09;75.04
46007;BME280;31738;50.188;8.524;2023-01-29T04:36:40;100224.28;;;-0.20;75.51
46007;BME280;31738;50.188;8.524;2023-01-29T04:39:18;100230.88;;;-0.24;74.96
46007;BME280;31738;50.188;8.524;2023-01-29T04:41:52;100231.03;;;-0.26;75.11
46007;BME280;31738;50.188;8.524;2023-01-29T04:45:03;100220.81;;;-0.37;75.33
46007;BME280;31738;50.188;8.524;2023-01-29T04:47:56;100222.50;;;-0.36;75.68
46007;BME280;31738;50.188;8.524;2023-01-29T04:51:08;100223.34;;;-0.43;75.60
46007;BME280;31738;50.188;8.524;2023-01-29T04:56:27;100219.53;;;-0.49;75.77
46007;BME280;31738;50.188;8.524;2023-01-29T04:59:00;100220.03;;;-0.45;75.98
46007;BME280;31738;50.188;8.524;2023-01-29T05:01:29;100215.44;;;-0.43;76.40
46007;BME280;31738;50.188;8.524;2023-01-29T05:03:59;100214.44;;;-0.42;76.14
46007;BME280;31738;50.188;8.524;2023-01-29T05:06:27;100214.44;;;-0.42;76.16
46007;BME280;31738;50.188;8.524;2023-01-29T05:08:55;100223.50;;;-0.45;76.00
46007;BME280;31738;50.188;8.524;2023-01-29T05:11:23;100213.13;;;-0.46;76.71
46007;BME280;31738;50.188;8.524;2023-01-29T05:13:49;100202.25;;;-0.51;76.79
46007;BME280;31738;50.188;8.524;2023-01-29T05:18:40;100188.75;;;-0.56;76.90
46007;BME280;31738;50.188;8.524;2023-01-29T05:21:07;100178.03;;;-0.55;76.77
46007;BME280;31738;50.188;8.524;2023-01-29T05:23:33;100165.19;;;-0.58;76.78
46007;BME280;31738;50.188;8.524;2023-01-29T05:25:59;100176.56;;;-0.57;76.86
46007;BME280;31738;50.188;8.524;2023-01-29T05:28:24;100172.28;;;-0.58;77.09
46007;BME280;31738;50.188;8.524;2023-01-29T05:30:52;100173.59;;;-0.62;77.19
46007;BME280;31738;50.188;8.524;2023-01-29T05:33:29;100179.22;;;-0.65;77.26
46007;BME280;31738;50.188;8.524;2023-01-29T05:35:57;100183.97;;;-0.69;77.05
46007;BME280;31738;50.188;8.524;2023-01-29T05:38:24;100182.69;;;-0.73;77.15
46007;BME280;31738;50.188;8.524;2023-01-29T05:40:49;100186.47;;;-0.75;77.23
46007;BME280;31738;50.188;8.524;2023-01-29T05:43:17;100188.59;;;-0.79;76.90
46007;BME280;31738;50.188;8.524;2023-01-29T05:45:51;100186.47;;;-0.83;77.18
46007;BME280;31738;50.188;8.524;2023-01-29T05:48:17;100191.91;;;-0.85;77.54
46007;BME280;31738;50.188;8.524;2023-01-29T05:50:43;100192.22;;;-0.88;77.38
46007;BME280;31738;50.188;8.524;2023-01-29T05:53:08;100196.00;;;-0.90;77.02
46007;BME280;31738;50.188;8.524;2023-01-29T05:55:33;100185.47;;;-0.90;76.92
46007;BME280;31738;50.188;8.524;2023-01-29T05:57:59;100193.53;;;-0.92;77.60
46007;BME280;31738;50.188;8.524;2023-01-29T06:00:25;100204.38;;;-0.95;77.08
46007;BME280;31738;50.188;8.524;2023-01-29T06:02:50;100201.13;;;-0.97;77.10
46007;BME280;31738;50.188;8.524;2023-01-29T06:05:16;100211.97;;;-1.00;77.31
46007;BME280;31738;50.188;8.524;2023-01-29T06:07:41;100211.47;;;-1.03;77.35
46007;BME280;31738;50.188;8.524;2023-01-29T06:10:14;100201.28;;;-1.06;77.20
46007;BME280;31738;50.188;8.524;2023-01-29T06:12:41;100194.03;;;-1.04;77.58
46007;BME280;31738;50.188;8.524;2023-01-29T06:15:07;100182.50;;;-1.03;77.79
46007;BME280;31738;50.188;8.524;2023-01-29T06:17:32;100181.50;;;-1.02;77.49
46007;BME280;31738;50.188;8.524;2023-01-29T06:19:57;100165.88;;;-1.04;77.91
46007;BME280;31738;50.188;8.524;2023-01-29T06:22:23;100179.22;;;-1.05;77.81
46007;BME280;31738;50.188;8.524;2023-01-29T06:24:48;100163.75;;;-1.08;77.94
46007;BME280;31738;50.188;8.524;2023-01-29T06:27:14;100153.38;;;-1.10;78.04
46007;BME280;31738;50.188;8.524;2023-01-29T06:29:39;100155.19;;;-1.10;77.97
46007;BME280;31738;50.188;8.524;2023-01-29T06:32:05;100152.88;;;-1.13;77.71
46007;BME280;31738;50.188;8.524;2023-01-29T06:34:30;100153.72;;;-1.13;77.74
46007;BME280;31738;50.188;8.524;2023-01-29T06:36:56;100151.25;;;-1.14;78.03
46007;BME280;31738;50.188;8.524;2023-01-29T06:39:21;100160.28;;;-1.17;78.12
46007;BME280;31738;50.188;8.524;2023-01-29T06:41:47;100168.34;;;-1.18;78.13
46007;BME280;31738;50.188;8.524;2023-01-29T06:44:12;100161.59;;;-1.21;78.35
46007;BME280;31738;50.188;8.524;2023-01-29T06:46:37;100160.78;;;-1.21;77.83
46007;BME280;31738;50.188;8.524;2023-01-29T06:49:03;100154.84;;;-1.23;78.53
46007;BME280;31738;50.188;8.524;2023-01-29T06:51:28;100163.75;;;-1.24;77.94
46007;BME280;31738;50.188;8.524;2023-01-29T06:53:54;100163.91;;;-1.26;78.28
46007;BME280;31738;50.188;8.524;2023-01-29T06:56:21;100172.78;;;-1.27;78.60
46007;BME280;31738;50.188;8.524;2023-01-29T06:58:47;100174.75;;;-1.29;78.28
46007;BME280;31738;50.188;8.524;2023-01-29T07:01:13;100172.44;;;-1.32;78.25
46007;BME280;31738;50.188;8.524;2023-01-29T07:03:38;100181.16;;;-1.31;78.38
46007;BME280;31738;50.188;8.524;2023-01-29T07:06:06;100176.72;;;-1.31;78.37
46007;BME280;31738;50.188;8.524;2023-01-29T07:08:39;100185.63;;;-1.32;78.11
46007;BME280;31738;50.188;8.524;2023-01-29T07:11:05;100191.69;;;-1.31;78.63
46007;BME280;31738;50.188;8.524;2023-01-29T07:13:31;100196.94;;;-1.31;78.64
46007;BME280;31738;50.188;8.524;2023-01-29T07:15:57;100193.66;;;-1.33;78.74
46007;BME280;31738;50.188;8.524;2023-01-29T07:18:24;100190.38;;;-1.35;78.72
46007;BME280;31738;50.188;8.524;2023-01-29T07:20:50;100187.91;;;-1.37;78.93
46007;BME280;31738;50.188;8.524;2023-01-29T07:23:15;100197.59;;;-1.37;78.79
46007;BME280;31738;50.188;8.524;2023-01-29T07:25:41;100201.22;;;-1.38;78.89
46007;BME280;31738;50.188;8.524;2023-01-29T07:28:07;100202.84;;;-1.37;78.95
46007;BME280;31738;50.188;8.524;2023-01-29T07:30:32;100197.59;;;-1.37;79.14
46007;BME280;31738;50.188;8.524;2023-01-29T07:33:02;100193.97;;;-1.36;78.80
46007;BME280;31738;50.188;8.524;2023-01-29T07:35:28;100200.06;;;-1.36;79.01
46007;BME280;31738;50.188;8.524;2023-01-29T07:37:53;100185.09;;;-1.35;79.21
46007;BME280;31738;50.188;8.524;2023-01-29T07:40:19;100180.50;;;-1.33;79.22
46007;BME280;31738;50.188;8.524;2023-01-29T07:42:44;100179.53;;;-1.32;79.15
46007;BME280;31738;50.188;8.524;2023-01-29T07:45:10;100172.28;;;-1.30;79.34
46007;BME280;31738;50.188;8.524;2023-01-29T07:47:36;100169.50;;;-1.29;79.48
46007;BME280;31738;50.188;8.524;2023-01-29T07:50:02;100160.44;;;-1.26;79.43
46007;BME280;31738;50.188;8.524;2023-01-29T07:52:29;100155.69;;;-1.23;79.40
46007;BME280;31738;50.188;8.524;2023-01-29T07:54:55;100158.78;;;-1.19;79.62
46007;BME280;31738;50.188;8.524;2023-01-29T07:57:21;100157.81;;;-1.18;79.59
46007;BME280;31738;50.188;8.524;2023-01-29T07:59:46;100169.00;;;-1.16;79.52
46007;BME280;31738;50.188;8.524;2023-01-29T08:02:12;100171.47;;;-1.15;79.63
46007;BME280;31738;50.188;8.524;2023-01-29T08:04:38;100172.28;;;-1.14;79.74
46007;BME280;31738;50.188;8.524;2023-01-29T08:07:03;100167.53;;;-1.11;79.77
46007;BME280;31738;50.188;8.524;2023-01-29T08:09:29;100183.16;;;-1.09;79.48
46007;BME280;31738;50.188;8.524;2023-01-29T08:11:55;100186.75;;;-1.10;79.67
46007;BME280;31738;50.188;8.524;2023-01-29T08:14:21;100193.53;;;-1.08;79.52
46007;BME280;31738;50.188;8.524;2023-01-29T08:16:47;100198.63;;;-1.06;79.79
46007;BME280;31738;50.188;8.524;2023-01-29T08:19:13;100188.25;;;-1.08;80.08
46007;BME280;31738;50.188;8.524;2023-01-29T08:21:38;100185.97;;;-1.03;80.04
46007;BME280;31738;50.188;8.524;2023-01-29T08:24:04;100180.22;;;-0.98;80.08
46007;BME280;31738;50.188;8.524;2023-01-29T08:26:29;100170.16;;;-0.95;79.93
46007;BME280;31738;50.188;8.524;2023-01-29T08:28:55;100160.78;;;-0.89;79.65
46007;BME280;31738;50.188;8.524;2023-01-29T08:31:20;100158.97;;;-0.81;80.04
46007;BME280;31738;50.188;8.524;2023-01-29T08:33:46;100164.41;;;-0.74;79.69
46007;BME280;31738;50.188;8.524;2023-01-29T08:36:12;100166.03;;;-0.65;79.80
46007;BME280;31738;50.188;8.524;2023-01-29T08:38:38;100173.78;;;-0.56;79.93
46007;BME280;31738;50.188;8.524;2023-01-29T08:41:04;100164.69;;;-0.45;80.07
46007;BME280;31738;50.188;8.524;2023-01-29T08:43:30;100172.59;;;-0.37;79.79
46007;BME280;31738;50.188;8.524;2023-01-29T08:45:55;100176.19;;;-0.30;80.02
46007;BME280;31738;50.188;8.524;2023-01-29T08:48:21;100166.47;;;-0.22;79.70
46007;BME280;31738;50.188;8.524;2023-01-29T08:50:46;100165.59;;;-0.14;79.92
46007;BME280;31738;50.188;8.524;2023-01-29T08:53:11;100165.56;;;-0.06;79.28
46007;BME280;31738;50.188;8.524;2023-01-29T08:55:38;100182.69;;;-0.02;79.58
46007;BME280;31738;50.188;8.524;2023-01-29T08:58:09;100187.28;;;0.04;79.34
46007;BME280;31738;50.188;8.524;2023-01-29T09:00:38;100187.63;;;0.09;78.85
46007;BME280;31738;50.188;8.524;2023-01-29T09:03:03;100179.81;;;0.16;79.22
46007;BME280;31738;50.188;8.524;2023-01-29T09:05:29;100177.50;;;0.21;78.88
46007;BME280;31738;50.188;8.524;2023-01-29T09:07:57;100182.91;;;0.27;78.93
46007;BME280;31738;50.188;8.524;2023-01-29T09:10:24;100187.84;;;0.30;78.25
46007;BME280;31738;50.188;8.524;2023-01-29T09:12:49;100200.22;;;0.30;78.14
46007;BME280;31738;50.188;8.524;2023-01-29T09:15:15;100218.19;;;0.26;78.29
46007;BME280;31738;50.188;8.524;2023-01-29T09:17:40;100204.03;;;0.27;78.10
46007;BME280;31738;50.188;8.524;2023-01-29T09:23:49;100210.13;;;0.28;78.43
46007;BME280;31738;50.188;8.524;2023-01-29T09:26:14;100220.81;;;0.34;78.64
46007;BME280;31738;50.188;8.524;2023-01-29T09:32:23;100229.19;;;0.38;78.28
46007;BME280;31738;50.188;8.524;2023-01-29T09:34:48;100233.97;;;0.42;78.19
46007;BME280;31738;50.188;8.524;2023-01-29T09:37:14;100234.44;;;0.46;78.12
46007;BME280;31738;50.188;8.524;2023-01-29T09:39:42;100249.47;;;0.37;78.07
46007;BME280;31738;50.188;8.524;2023-01-29T09:42:23;100238.41;;;0.42;78.26
46007;BME280;31738;50.188;8.524;2023-01-29T09:45:09;100239.25;;;0.42;77.50
46007;BME280;31738;50.188;8.524;2023-01-29T09:47:37;100241.22;;;0.40;78.36
46007;BME280;31738;50.188;8.524;2023-01-29T09:50:09;100239.09;;;0.36;77.85
46007;BME280;31738;50.188;8.524;2023-01-29T09:55:49;100243.41;;;0.37;77.83
46007;BME280;31738;50.188;8.524;2023-01-29T09:58:28;100245.69;;;0.40;77.47
46007;BME280;31738;50.188;8.524;2023-01-29T10:01:06;100245.47;;;0.49;78.07
46007;BME280;31738;50.188;8.524;2023-01-29T10:09:25;100228.97;;;0.55;75.73
46007;BME280;31738;50.188;8.524;2023-01-29T10:16:02;100203.94;;;0.43;74.94
46007;BME280;31738;50.188;8.524;2023-01-29T10:21:44;100191.16;;;0.63;77.08
46007;BME280;31738;50.188;8.524;2023-01-29T10:24:36;100192.47;;;0.59;76.52
46007;BME280;31738;50.188;8.524;2023-01-29T10:27:11;100187.31;;;0.65;76.67
46007;BME280;31738;50.188;8.524;2023-01-29T10:29:40;100174.34;;;0.78;76.62
46007;BME280;31738;50.188;8.524;2023-01-29T10:32:10;100181.34;;;0.94;76.24
46007;BME280;31738;50.188;8.524;2023-01-29T10:34:48;100175.50;;;1.06;75.73
46007;BME280;31738;50.188;8.524;2023-01-29T10:37:17;100172.00;;;1.06;74.97
46007;BME280;31738;50.188;8.524;2023-01-29T10:48:43;100179.53;;;0.94;75.03
46007;BME280;31738;50.188;8.524;2023-01-29T10:51:36;100165.41;;;1.10;74.69
46007;BME280;31738;50.188;8.524;2023-01-29T10:54:40;100164.81;;;1.22;74.21
46007;BME280;31738;50.188;8.524;2023-01-29T10:58:11;100166.06;;;1.26;74.34
46007;BME280;31738;50.188;8.524;2023-01-29T11:00:11;100156.28;;;1.12;74.21
46007;BME280;31738;50.188;8.524;2023-01-29T11:02:43;100152.50;;;1.29;74.30
46007;BME280;31738;50.188;8.524;2023-01-29T11:05:29;100158.44;;;1.31;73.23
46007;BME280;31738;50.188;8.524;2023-01-29T11:08:02;100141.56;;;1.32;73.37
46007;BME280;31738;50.188;8.524;2023-01-29T11:10:32;100143.84;;;1.35;74.09
46007;BME280;31738;50.188;8.524;2023-01-29T11:12:59;100137.84;;;1.41;73.84
46007;BME280;31738;50.188;8.524;2023-01-29T11:15:28;100138.78;;;1.48;74.11
46007;BME280;31738;50.188;8.524;2023-01-29T11:18:12;100141.69;;;1.53;73.80
46007;BME280;31738;50.188;8.524;2023-01-29T11:20:43;100156.28;;;1.49;72.52
46007;BME280;31738;50.188;8.524;2023-01-29T11:23:48;100140.78;;;1.46;73.77
46007;BME280;31738;50.188;8.524;2023-01-29T11:26:17;100141.50;;;1.55;73.84
46007;BME280;31738;50.188;8.524;2023-01-29T11:28:49;100139.91;;;1.68;73.67
46007;BME280;31738;50.188;8.524;2023-01-29T11:31:17;100133.34;;;1.79;73.32
46007;BME280;31738;50.188;8.524;2023-01-29T11:33:44;100124.75;;;1.92;73.31
46007;BME280;31738;50.188;8.524;2023-01-29T11:40:53;100123.66;;;2.01;73.13
46007;BME280;31738;50.188;8.524;2023-01-29T11:43:29;100102.72;;;2.06;72.77
46007;BME280;31738;50.188;8.524;2023-01-29T11:46:12;100097.34;;;2.14;72.73
46007;BME280;31738;50.188;8.524;2023-01-29T11:48:44;100101.44;;;2.16;72.33
46007;BME280;31738;50.188;8.524;2023-01-29T11:51:20;100100.63;;;2.16;72.10
46007;BME280;31738;50.188;8.524;2023-01-29T11:53:51;100094.97;;;2.19;72.47
46007;BME280;31738;50.188;8.524;2023-01-29T11:56:21;100090.56;;;2.26;72.11
46007;BME280;31738;50.188;8.524;2023-01-29T11:58:49;100088.16;;;2.31;71.77
46007;BME280;31738;50.188;8.524;2023-01-29T12:01:26;100096.38;;;2.36;72.09
46007;BME280;31738;50.188;8.524;2023-01-29T12:03:53;100088.81;;;2.33;71.86
46007;BME280;31738;50.188;8.524;2023-01-29T12:06:22;100088.00;;;2.32;71.46
46007;BME280;31738;50.188;8.524;2023-01-29T12:08:56;100090.19;;;2.29;71.77
46007;BME280;31738;50.188;8.524;2023-01-29T12:11:26;100095.47;;;2.29;71.89
46007;BME280;31738;50.188;8.524;2023-01-29T12:13:55;100085.25;;;2.26;71.58
46007;BME280;31738;50.188;8.524;2023-01-29T12:20:14;100072.16;;;2.18;72.07
46007;BME280;31738;50.188;8.524;2023-01-29T12:22:50;100064.47;;;2.23;71.41
46007;BME280;31738;50.188;8.524;2023-01-29T12:25:23;100065.75;;;2.27;71.45
46007;BME280;31738;50.188;8.524;2023-01-29T12:29:16;100050.47;;;2.29;70.88
46007;BME280;31738;50.188;8.524;2023-01-29T12:32:21;100056.41;;;2.31;70.81
46007;BME280;31738;50.188;8.524;2023-01-29T12:35:24;100043.81;;;2.33;71.26
46007;BME280;31738;50.188;8.524;2023-01-29T12:38:56;100029.50;;;2.27;70.97
46007;BME280;31738;50.188;8.524;2023-01-29T12:41:29;100036.09;;;2.38;70.98
46007;BME280;31738;50.188;8.524;2023-01-29T12:44:06;100033.34;;;2.46;70.72
46007;BME280;31738;50.188;8.524;2023-01-29T12:46:45;100031.72;;;2.45;70.44
46007;BME280;31738;50.188;8.524;2023-01-29T12:49:18;100035.53;;;2.42;70.69
46007;BME280;31738;50.188;8.524;2023-01-29T12:51:52;100029.63;;;2.40;70.58
46007;BME280;31738;50.188;8.524;2023-01-29T12:54:25;100014.50;;;2.34;70.97
46007;BME280;31738;50.188;8.524;2023-01-29T12:56:55;100025.03;;;2.28;71.24
46007;BME280;31738;50.188;8.524;2023-01-29T12:59:35;100021.13;;;2.24;70.97
46007;BME280;31738;50.188;8.524;2023-01-29T13:02:17;100024.16;;;2.21;70.66
46007;BME280;31738;50.188;8.524;2023-01-29T13:07:46;100006.72;;;2.12;70.98
46007;BME280;31738;50.188;8.524;2023-01-29T13:10:17;100016.31;;;2.13;71.42
46007;BME280;31738;50.188;8.524;2023-01-29T13:16:43;100001.69;;;1.96;71.76
46007;BME280;31738;50.188;8.524;2023-01-29T13:19:30;99994.00;;;2.01;71.88
46007;BME280;31738;50.188;8.524;2023-01-29T13:22:01;99991.19;;;2.02;71.49
46007;BME280;31738;50.188;8.524;2023-01-29T13:24:35;99980.59;;;2.02;71.64
46007;BME280;31738;50.188;8.524;2023-01-29T13:27:52;99984.41;;;2.00;72.05
46007;BME280;31738;50.188;8.524;2023-01-29T13:30:43;99984.03;;;2.03;71.90
46007;BME280;31738;50.188;8.524;2023-01-29T13:33:18;99982.69;;;2.07;71.91
46007;BME280;31738;50.188;8.524;2023-01-29T13:35:45;99983.75;;;2.12;71.97
46007;BME280;31738;50.188;8.524;2023-01-29T13:38:37;99976.44;;;2.14;71.59
46007;BME280;31738;50.188;8.524;2023-01-29T13:41:04;99978.06;;;2.15;71.60
46007;BME280;31738;50.188;8.524;2023-01-29T13:43:50;99972.59;;;2.17;71.49
46007;BME280;31738;50.188;8.524;2023-01-29T13:49:42;99982.97;;;2.18;71.71
46007;BME280;31738;50.188;8.524;2023-01-29T13:55:50;99970.84;;;2.24;71.70
46007;BME280;31738;50.188;8.524;2023-01-29T13:58:16;99968.38;;;2.22;71.89
46007;BME280;31738;50.188;8.524;2023-01-29T14:06:02;99973.88;;;2.21;71.67
46007;BME280;31738;50.188;8.524;2023-01-29T14:11:34;99963.03;;;2.16;71.59
46007;BME280;31738;50.188;8.524;2023-01-29T14:14:00;99967.50;;;2.15;71.73
46007;BME280;31738;50.188;8.524;2023-01-29T14:16:30;99966.91;;;2.20;72.03
46007;BME280;31738;50.188;8.524;2023-01-29T14:18:59;99964.28;;;2.20;71.82
46007;BME280;31738;50.188;8.524;2023-01-29T14:21:29;99957.34;;;2.19;71.65
46007;BME280;31738;50.188;8.524;2023-01-29T14:23:59;99957.34;;;2.19;71.85
46007;BME280;31738;50.188;8.524;2023-01-29T14:31:43;99949.53;;;2.11;72.29
46007;BME280;31738;50.188;8.524;2023-01-29T14:37:37;99943.75;;;2.01;71.62
46007;BME280;31738;50.188;8.524;2023-01-29T14:40:31;99939.63;;;1.98;72.26
46007;BME280;31738;50.188;8.524;2023-01-29T14:43:02;99936.81;;;2.00;71.85
46007;BME280;31738;50.188;8.524;2023-01-29T14:45:36;99927.88;;;2.01;71.97
46007;BME280;31738;50.188;8.524;2023-01-29T14:48:18;99924.13;;;1.95;71.69
46007;BME280;31738;50.188;8.524;2023-01-29T14:50:46;99925.34;;;1.93;72.22
46007;BME280;31738;50.188;8.524;2023-01-29T14:53:17;99917.22;;;1.94;72.19
46007;BME280;31738;50.188;8.524;2023-01-29T14:58:50;99922.06;;;1.91;72.42
46007;BME280;31738;50.188;8.524;2023-01-29T15:01:22;99915.16;;;1.90;72.60
46007;BME280;31738;50.188;8.524;2023-01-29T15:03:52;99909.22;;;1.88;72.37
46007;BME280;31738;50.188;8.524;2023-01-29T15:06:29;99907.22;;;1.90;72.42
46007;BME280;31738;50.188;8.524;2023-01-29T15:09:38;99904.94;;;1.87;72.40
46007;BME280;31738;50.188;8.524;2023-01-29T15:14:50;99891.06;;;1.85;72.51
46007;BME280;31738;50.188;8.524;2023-01-29T15:17:25;99895.53;;;1.84;72.85
46007;BME280;31738;50.188;8.524;2023-01-29T15:19:52;99895.72;;;1.83;72.88
46007;BME280;31738;50.188;8.524;2023-01-29T15:22:19;99889.47;;;1.84;72.60
46007;BME280;31738;50.188;8.524;2023-01-29T15:25:20;99876.81;;;1.79;72.74
46007;BME280;31738;50.188;8.524;2023-01-29T15:28:22;99880.38;;;1.71;73.13
46007;BME280;31738;50.188;8.524;2023-01-29T15:30:53;99867.78;;;1.73;73.48
46007;BME280;31738;50.188;8.524;2023-01-29T15:33:19;99865.97;;;1.74;73.37
46007;BME280;31738;50.188;8.524;2023-01-29T15:35:45;99870.41;;;1.73;73.20
46007;BME280;31738;50.188;8.524;2023-01-29T15:38:19;99866.16;;;1.72;73.70
46007;BME280;31738;50.188;8.524;2023-01-29T15:45:50;99847.66;;;1.51;74.18